createdAt,value
2022-09-15T00:02:10.333Z,13.90
2022-09-15T00:04:52.189Z,13.90
2022-09-15T00:07:34.099Z,14.00
2022-09-15T00:10:15.885Z,13.90
2022-09-15T00:12:57.629Z,14.00
2022-09-15T00:15:39.730Z,14.00
2022-09-15T00:18:21.537Z,14.00
2022-09-15T00:21:08.330Z,14.00
2022-09-15T00:23:50.917Z,14.00
2022-09-15T00:26:32.872Z,14.00
2022-09-15T00:29:14.710Z,14.00
2022-09-15T00:31:56.541Z,13.90
2022-09-15T00:34:38.264Z,13.90
2022-09-15T00:37:20.458Z,13.90
2022-09-15T00:40:03.096Z,13.90
2022-09-15T00:42:44.880Z,13.90
2022-09-15T00:45:27.262Z,13.90
2022-09-15T00:48:14.718Z,13.90
2022-09-15T00:50:57.722Z,13.80
2022-09-15T00:53:40.371Z,13.90
2022-09-15T00:56:26.135Z,13.90
2022-09-15T00:59:11.934Z,13.90
2022-09-15T01:02:10.974Z,14.00
2022-09-15T01:04:58.352Z,14.00
2022-09-15T01:07:55.371Z,14.00
2022-09-15T01:10:40.313Z,14.00
2022-09-15T01:13:22.211Z,14.00
2022-09-15T01:16:40.321Z,14.10
2022-09-15T01:19:39.930Z,14.10
2022-09-15T01:22:57.264Z,14.20
2022-09-15T01:25:50.920Z,14.30
2022-09-15T01:29:06.392Z,14.30
2022-09-15T01:32:13.221Z,14.30
2022-09-15T01:35:23.111Z,14.30
2022-09-15T01:38:34.931Z,14.40
2022-09-15T01:41:45.299Z,14.50
2022-09-15T01:44:33.970Z,14.50
2022-09-15T01:47:19.206Z,14.50
2022-09-15T01:50:20.802Z,14.50
2022-09-15T01:53:08.786Z,14.60
2022-09-15T01:55:53.985Z,14.70
2022-09-15T01:58:37.870Z,14.90
2022-09-15T02:01:29.754Z,14.90
2022-09-15T02:04:29.737Z,15.00
2022-09-15T02:07:31.189Z,15.00
2022-09-15T02:10:34.742Z,15.00
2022-09-15T02:13:42.838Z,15.10
2022-09-15T02:16:28.059Z,15.10
2022-09-15T02:19:30.885Z,15.10
2022-09-15T02:22:23.545Z,15.10
2022-09-15T02:25:16.519Z,15.10
2022-09-15T02:28:04.508Z,15.10
2022-09-15T02:30:47.609Z,15.10
2022-09-15T02:33:35.352Z,15.00
2022-09-15T02:36:19.865Z,15.00
2022-09-15T02:39:05.774Z,14.90
2022-09-15T02:41:49.054Z,14.80
2022-09-15T02:44:31.456Z,14.70
2022-09-15T02:47:13.455Z,14.70
2022-09-15T02:49:55.845Z,14.70
2022-09-15T02:52:37.869Z,14.60
2022-09-15T02:55:19.693Z,14.70
2022-09-15T02:58:01.638Z,14.70
2022-09-15T03:00:44.172Z,14.70
2022-09-15T03:03:25.949Z,14.70
2022-09-15T03:06:16.976Z,14.70
2022-09-15T03:09:00.224Z,14.60
2022-09-15T03:11:41.982Z,14.50
2022-09-15T03:14:24.084Z,14.50
2022-09-15T03:17:05.855Z,14.50
2022-09-15T03:19:47.605Z,14.60
2022-09-15T03:22:29.342Z,14.60
2022-09-15T03:25:11.475Z,14.60
2022-09-15T03:27:53.271Z,14.70
2022-09-15T03:30:34.999Z,14.70
2022-09-15T03:33:16.783Z,14.80
2022-09-15T03:35:58.908Z,14.80
2022-09-15T03:38:40.929Z,14.90
2022-09-15T03:41:23.184Z,14.90
2022-09-15T03:44:04.975Z,14.90
2022-09-15T03:46:46.758Z,14.90
2022-09-15T03:49:29.111Z,14.90
2022-09-15T03:52:10.871Z,14.80
2022-09-15T03:54:52.637Z,14.90
2022-09-15T03:57:34.384Z,14.80
2022-09-15T04:00:16.265Z,14.80
2022-09-15T04:02:57.990Z,14.80
2022-09-15T04:05:39.887Z,14.80
2022-09-15T04:08:21.625Z,14.90
2022-09-15T04:11:08.148Z,14.80
2022-09-15T04:13:50.124Z,14.80
2022-09-15T04:16:32.013Z,14.90
2022-09-15T04:19:14.345Z,14.90
2022-09-15T04:21:56.131Z,15.00
2022-09-15T04:24:37.895Z,15.00
2022-09-15T04:27:19.754Z,15.00
2022-09-15T04:30:01.663Z,15.00
2022-09-15T04:32:43.425Z,15.10
2022-09-15T04:35:25.166Z,15.10
2022-09-15T04:38:07.254Z,15.10
2022-09-15T04:40:49.226Z,15.30
2022-09-15T04:43:31.996Z,15.30
2022-09-15T04:46:15.158Z,15.20
2022-09-15T04:48:57.323Z,15.00
2022-09-15T04:51:39.081Z,15.00
2022-09-15T04:54:21.513Z,14.90
2022-09-15T04:57:03.321Z,14.90
2022-09-15T04:59:45.649Z,14.90
2022-09-15T05:02:27.428Z,14.90
2022-09-15T05:05:09.452Z,14.90
2022-09-15T05:07:52.801Z,14.90
2022-09-15T05:10:34.980Z,15.00
2022-09-15T05:13:16.719Z,15.00
2022-09-15T05:16:08.487Z,15.10
2022-09-15T05:18:52.058Z,15.20
2022-09-15T05:21:33.931Z,15.10
2022-09-15T05:24:15.669Z,15.10
2022-09-15T05:26:57.446Z,15.20
2022-09-15T05:29:39.322Z,15.30
2022-09-15T05:32:21.289Z,15.40
2022-09-15T05:35:03.838Z,15.50
2022-09-15T05:37:45.709Z,15.50
2022-09-15T05:40:27.474Z,15.50
2022-09-15T05:43:09.260Z,15.50
2022-09-15T05:45:55.091Z,15.40
2022-09-15T05:48:37.253Z,15.40
2022-09-15T05:51:19.018Z,15.40
2022-09-15T05:54:00.813Z,15.40
2022-09-15T05:56:42.594Z,15.50
2022-09-15T05:59:24.589Z,15.60
2022-09-15T06:02:06.657Z,15.70
2022-09-15T06:04:48.493Z,16.00
2022-09-15T06:07:16.770Z,16.00
2022-09-15T06:09:44.006Z,15.90
2022-09-15T06:12:10.897Z,15.90
2022-09-15T06:14:37.997Z,15.80
2022-09-15T06:17:04.937Z,15.80
2022-09-15T06:19:33.419Z,16.00
2022-09-15T06:22:00.621Z,16.30
2022-09-15T06:24:27.584Z,16.40
2022-09-15T06:27:01.506Z,16.20
2022-09-15T06:29:29.063Z,16.10
2022-09-15T06:31:57.190Z,16.10
2022-09-15T06:34:24.097Z,16.20
2022-09-15T06:36:51.210Z,16.40
2022-09-15T06:39:18.105Z,16.50
2022-09-15T06:42:01.763Z,16.60
2022-09-15T06:44:35.720Z,17.00
2022-09-15T06:47:02.727Z,17.10
2022-09-15T06:49:31.201Z,17.10
2022-09-15T06:51:58.443Z,17.20
2022-09-15T06:54:25.425Z,17.30
2022-09-15T06:56:52.665Z,17.20
2022-09-15T06:59:20.350Z,17.10
2022-09-15T07:01:54.653Z,17.10
2022-09-15T07:04:23.380Z,17.30
2022-09-15T07:06:53.009Z,17.40
2022-09-15T07:09:19.928Z,17.40
2022-09-15T07:11:47.042Z,17.40
2022-09-15T07:14:14.100Z,17.40
2022-09-15T07:16:41.081Z,17.30
2022-09-15T07:19:09.605Z,17.40
2022-09-15T07:21:40.861Z,17.50
2022-09-15T07:24:10.694Z,17.50
2022-09-15T07:26:38.209Z,17.50
2022-09-15T07:29:06.819Z,17.60
2022-09-15T07:31:36.588Z,17.70
2022-09-15T07:34:04.345Z,17.70
2022-09-15T07:36:32.013Z,17.90
2022-09-15T07:38:59.017Z,17.80
2022-09-15T07:41:28.741Z,17.80
2022-09-15T07:43:57.817Z,17.90
2022-09-15T07:46:26.892Z,18.00
2022-09-15T07:48:57.715Z,18.10
2022-09-15T07:51:25.715Z,18.20
2022-09-15T07:53:53.791Z,18.20
2022-09-15T07:56:22.418Z,18.40
2022-09-15T07:58:52.685Z,18.10
2022-09-15T08:01:22.343Z,17.80
2022-09-15T08:03:51.940Z,17.80
2022-09-15T08:06:21.566Z,18.20
2022-09-15T08:08:50.205Z,18.70
2022-09-15T08:11:19.908Z,19.20
2022-09-15T08:13:49.354Z,19.30
2022-09-15T08:16:33.079Z,19.30
2022-09-15T08:19:00.819Z,19.10
2022-09-15T08:21:28.350Z,19.00
2022-09-15T08:23:57.903Z,18.90
2022-09-15T08:26:26.886Z,19.00
2022-09-15T08:28:53.933Z,19.00
2022-09-15T08:31:21.366Z,18.60
2022-09-15T08:33:52.758Z,18.40
2022-09-15T08:36:28.071Z,18.30
2022-09-15T08:38:56.234Z,18.40
2022-09-15T08:41:29.433Z,18.70
2022-09-15T08:43:59.558Z,19.00
2022-09-15T08:46:34.569Z,19.30
2022-09-15T08:49:09.705Z,19.50
2022-09-15T08:52:09.983Z,19.50
2022-09-15T08:54:38.859Z,19.60
2022-09-15T08:57:10.270Z,19.80
2022-09-15T08:59:39.912Z,19.80
2022-09-15T09:02:13.115Z,19.80
2022-09-15T09:05:13.360Z,20.00
2022-09-15T09:07:43.158Z,20.00
2022-09-15T09:10:38.843Z,20.20
2022-09-15T09:13:51.319Z,20.40
2022-09-15T09:16:57.248Z,20.40
2022-09-15T09:19:42.730Z,20.60
2022-09-15T09:22:17.566Z,20.60
2022-09-15T09:24:53.381Z,20.60
2022-09-15T09:27:24.860Z,20.80
2022-09-15T09:30:07.543Z,20.70
2022-09-15T09:32:45.126Z,20.60
2022-09-15T09:35:32.054Z,20.30
2022-09-15T09:38:00.161Z,20.00
2022-09-15T09:40:28.200Z,20.30
2022-09-15T09:42:55.291Z,20.70
2022-09-15T09:45:23.786Z,21.00
2022-09-15T09:48:21.416Z,21.00
2022-09-15T09:50:50.604Z,21.50
2022-09-15T09:54:10.100Z,21.60
2022-09-15T09:57:40.793Z,21.40
2022-09-15T10:01:17.657Z,21.20
2022-09-15T10:04:51.770Z,21.30
2022-09-15T10:08:03.135Z,21.50
2022-09-15T10:10:54.091Z,21.10
2022-09-15T10:14:15.985Z,21.40
2022-09-15T10:16:43.710Z,21.30
2022-09-15T10:19:15.034Z,20.90
2022-09-15T10:21:42.436Z,20.70
2022-09-15T10:24:39.752Z,20.50
2022-09-15T10:27:35.556Z,20.90
2022-09-15T10:30:14.925Z,21.30
2022-09-15T10:32:43.277Z,21.30
2022-09-15T10:35:14.022Z,21.00
2022-09-15T10:38:12.376Z,20.80
2022-09-15T10:40:49.372Z,20.60
2022-09-15T10:43:39.238Z,20.50
2022-09-15T10:46:28.144Z,20.60
2022-09-15T10:49:15.293Z,20.50
2022-09-15T10:52:21.827Z,19.80
2022-09-15T10:55:37.033Z,19.90
2022-09-15T10:58:45.737Z,19.70
2022-09-15T11:02:47.392Z,19.50
2022-09-15T11:05:34.150Z,19.60
2022-09-15T11:08:32.004Z,19.70
2022-09-15T11:11:26.758Z,19.80
2022-09-15T11:14:24.461Z,19.90
2022-09-15T11:17:11.316Z,19.90
2022-09-15T11:19:55.890Z,19.90
2022-09-15T11:22:39.108Z,19.70
2022-09-15T11:25:25.141Z,19.50
2022-09-15T11:27:54.309Z,19.50
2022-09-15T11:30:26.003Z,19.50
2022-09-15T11:33:02.713Z,19.50
2022-09-15T11:35:36.058Z,19.50
2022-09-15T11:38:35.624Z,19.70
2022-09-15T11:41:19.290Z,19.90
2022-09-15T11:44:16.052Z,20.10
2022-09-15T11:47:05.438Z,20.30
2022-09-15T11:49:46.155Z,20.30
2022-09-15T11:52:32.265Z,20.10
2022-09-15T11:55:21.007Z,20.10
2022-09-15T11:58:19.675Z,20.30
2022-09-15T12:00:55.849Z,20.10
2022-09-15T12:03:26.545Z,20.10
2022-09-15T12:06:00.949Z,20.10
2022-09-15T12:08:49.716Z,19.80
2022-09-15T12:11:22.576Z,19.40
2022-09-15T12:13:50.473Z,19.40
2022-09-15T12:16:28.464Z,19.40
2022-09-15T12:19:16.947Z,19.40
2022-09-15T12:21:58.721Z,19.40
2022-09-15T12:24:45.917Z,19.50
2022-09-15T12:27:18.171Z,19.50
2022-09-15T12:29:52.351Z,19.70
2022-09-15T12:32:41.531Z,19.50
2022-09-15T12:35:20.072Z,19.60
2022-09-15T12:37:52.779Z,19.50
2022-09-15T12:40:33.602Z,19.50
2022-09-15T12:43:11.413Z,19.50
2022-09-15T12:45:41.471Z,19.50
2022-09-15T12:48:18.768Z,19.50
2022-09-15T12:50:54.881Z,19.20
2022-09-15T12:53:26.503Z,19.00
2022-09-15T12:55:55.888Z,19.00
2022-09-15T12:58:41.514Z,19.00
2022-09-15T13:01:23.804Z,19.10
2022-09-15T13:03:51.131Z,19.10
2022-09-15T13:06:25.274Z,19.10
2022-09-15T13:08:52.405Z,19.10
2022-09-15T13:11:58.258Z,19.10
2022-09-15T13:14:37.661Z,19.10
2022-09-15T13:17:18.581Z,19.10
2022-09-15T13:19:52.666Z,19.20
2022-09-15T13:22:34.778Z,19.40
2022-09-15T13:25:05.847Z,19.30
2022-09-15T13:27:40.201Z,19.20
2022-09-15T13:30:29.340Z,19.20
2022-09-15T13:33:10.846Z,19.10
2022-09-15T13:36:08.543Z,19.00
2022-09-15T13:38:53.271Z,19.00
2022-09-15T13:41:53.794Z,19.00
2022-09-15T13:44:23.720Z,19.10
2022-09-15T13:47:18.527Z,19.10
2022-09-15T13:50:00.965Z,19.20
2022-09-15T13:52:48.329Z,19.10
2022-09-15T13:55:21.566Z,19.10
2022-09-15T14:00:53.902Z,18.90
2022-09-15T14:03:37.317Z,18.80
2022-09-15T14:06:11.517Z,19.00
2022-09-15T14:08:40.359Z,19.10
2022-09-15T14:11:13.080Z,19.20
2022-09-15T14:13:49.006Z,19.30
2022-09-15T14:16:35.430Z,19.50
2022-09-15T14:19:25.420Z,19.40
2022-09-15T14:21:56.185Z,19.60
2022-09-15T14:24:32.593Z,19.60
2022-09-15T14:27:07.370Z,19.70
2022-09-15T14:29:43.225Z,19.50
2022-09-15T14:32:15.941Z,19.30
2022-09-15T14:34:44.409Z,19.10
2022-09-15T14:37:21.797Z,19.00
2022-09-15T14:39:57.289Z,18.90
2022-09-15T14:42:44.747Z,19.10
2022-09-15T14:48:01.498Z,19.00
2022-09-15T14:50:33.268Z,19.10
2022-09-15T14:53:03.962Z,18.90
2022-09-15T14:55:33.368Z,19.00
2022-09-15T14:58:14.846Z,19.00
2022-09-15T15:00:54.829Z,19.10
2022-09-15T15:03:52.607Z,19.30
2022-09-15T15:06:29.836Z,19.20
2022-09-15T15:09:16.671Z,19.00
2022-09-15T15:11:44.347Z,18.90
2022-09-15T15:14:13.421Z,18.80
2022-09-15T15:16:57.764Z,18.70
2022-09-15T15:19:32.025Z,18.70
2022-09-15T15:22:19.337Z,18.70
2022-09-15T15:24:49.674Z,18.70
2022-09-15T15:27:32.376Z,18.70
2022-09-15T15:30:34.740Z,18.70
2022-09-15T15:33:17.405Z,18.70
2022-09-15T15:35:48.575Z,18.60
2022-09-15T15:38:24.957Z,18.50
2022-09-15T15:41:04.429Z,18.50
2022-09-15T15:43:32.209Z,18.40
2022-09-15T15:46:03.188Z,18.30
2022-09-15T15:48:36.764Z,18.20
2022-09-15T15:51:06.635Z,18.10
2022-09-15T15:53:34.310Z,18.10
2022-09-15T15:56:03.154Z,18.10
2022-09-15T15:58:48.999Z,18.10
2022-09-15T16:01:16.076Z,18.10
2022-09-15T16:03:43.254Z,18.00
2022-09-15T16:06:10.682Z,18.00
2022-09-15T16:08:40.062Z,18.00
2022-09-15T16:11:13.671Z,18.00
2022-09-15T16:13:42.954Z,18.00
2022-09-15T16:16:36.029Z,18.00
2022-09-15T16:19:02.958Z,17.90
2022-09-15T16:21:37.038Z,17.90
2022-09-15T16:24:11.706Z,17.90
2022-09-15T16:26:40.490Z,17.80
2022-09-15T16:29:07.705Z,17.80
2022-09-15T16:31:35.581Z,17.80
2022-09-15T16:34:02.921Z,17.70
2022-09-15T16:36:36.209Z,17.80
2022-09-15T16:39:03.857Z,17.70
2022-09-15T16:41:30.728Z,17.60
2022-09-15T16:43:57.644Z,17.60
2022-09-15T16:46:25.229Z,17.50
2022-09-15T16:48:52.281Z,17.50
2022-09-15T16:51:30.662Z,17.50
2022-09-15T16:53:59.085Z,17.40
2022-09-15T16:56:26.963Z,17.30
2022-09-15T16:58:59.606Z,17.30
2022-09-15T17:01:28.947Z,17.20
2022-09-15T17:03:55.927Z,17.10
2022-09-15T17:06:22.976Z,17.10
2022-09-15T17:08:50.016Z,17.00
2022-09-15T17:11:19.450Z,16.90
2022-09-15T17:13:47.312Z,16.90
2022-09-15T17:16:19.194Z,16.90
2022-09-15T17:18:46.922Z,16.80
2022-09-15T17:21:16.857Z,16.80
2022-09-15T17:23:46.528Z,16.80
2022-09-15T17:26:17.622Z,16.80
2022-09-15T17:28:44.918Z,16.80
2022-09-15T17:31:21.129Z,16.80
2022-09-15T17:33:50.000Z,16.70
2022-09-15T17:36:17.738Z,16.70
2022-09-15T17:38:45.442Z,16.70
2022-09-15T17:41:15.250Z,16.70
2022-09-15T17:43:42.659Z,16.70
2022-09-15T17:46:09.741Z,16.70
2022-09-15T17:48:38.903Z,16.60
2022-09-15T17:51:07.100Z,16.60
2022-09-15T17:53:34.198Z,16.50
2022-09-15T17:56:01.638Z,16.40
2022-09-15T17:58:31.259Z,16.30
2022-09-15T18:00:59.135Z,16.20
2022-09-15T18:03:33.381Z,16.20
2022-09-15T18:06:04.233Z,16.10
2022-09-15T18:08:32.876Z,16.10
2022-09-15T18:11:00.666Z,16.00
2022-09-15T18:13:29.698Z,16.00
2022-09-15T18:15:57.922Z,15.90
2022-09-15T18:18:27.609Z,15.90
2022-09-15T18:20:57.737Z,15.90
2022-09-15T18:23:28.324Z,15.80
2022-09-15T18:25:55.369Z,15.80
2022-09-15T18:28:22.227Z,15.80
2022-09-15T18:30:50.793Z,15.70
2022-09-15T18:33:23.865Z,15.70
2022-09-15T18:35:53.737Z,15.70
2022-09-15T18:38:21.740Z,15.60
2022-09-15T18:40:53.302Z,15.60
2022-09-15T18:43:21.661Z,15.60
2022-09-15T18:45:48.915Z,15.60
2022-09-15T18:48:16.230Z,15.60
2022-09-15T18:50:44.987Z,15.60
2022-09-15T18:53:12.404Z,15.70
2022-09-15T18:55:41.872Z,15.70
2022-09-15T18:58:09.589Z,15.70
2022-09-15T19:00:36.840Z,15.70
2022-09-15T19:03:06.446Z,15.70
2022-09-15T19:05:34.258Z,15.80
2022-09-15T19:08:02.216Z,15.80
2022-09-15T19:10:29.582Z,15.90
2022-09-15T19:12:56.681Z,15.80
2022-09-15T19:15:24.085Z,15.90
2022-09-15T19:17:51.639Z,15.90
2022-09-15T19:20:19.180Z,15.90
2022-09-15T19:22:47.393Z,15.90
2022-09-15T19:25:14.406Z,16.00
2022-09-15T19:27:41.577Z,16.00
2022-09-15T19:30:10.255Z,16.00
2022-09-15T19:32:38.783Z,16.00
2022-09-15T19:35:07.831Z,16.00
2022-09-15T19:37:39.540Z,15.90
2022-09-15T19:40:09.808Z,15.90
2022-09-15T19:42:38.490Z,15.80
2022-09-15T19:45:06.676Z,15.80
2022-09-15T19:47:34.078Z,15.80
2022-09-15T19:50:02.419Z,15.80
2022-09-15T19:52:29.304Z,15.80
2022-09-15T19:54:56.468Z,15.80
2022-09-15T19:57:23.692Z,15.80
2022-09-15T19:59:51.008Z,15.80
2022-09-15T20:02:18.552Z,15.70
2022-09-15T20:04:45.823Z,15.80
2022-09-15T20:07:13.025Z,15.80
2022-09-15T20:09:40.520Z,15.80
2022-09-15T20:12:07.721Z,15.80
2022-09-15T20:14:34.847Z,15.80
2022-09-15T20:17:02.217Z,15.80
2022-09-15T20:19:30.178Z,15.90
2022-09-15T20:21:57.253Z,16.00
2022-09-15T20:24:24.923Z,15.90
2022-09-15T20:26:52.393Z,15.90
2022-09-15T20:29:20.273Z,15.90
2022-09-15T20:31:48.171Z,15.90
2022-09-15T20:34:15.764Z,15.80
2022-09-15T20:36:43.630Z,15.80
2022-09-15T20:39:14.654Z,15.80
2022-09-15T20:41:46.521Z,15.70
2022-09-15T20:44:15.104Z,15.70
2022-09-15T20:46:42.834Z,15.60
2022-09-15T20:49:11.165Z,15.60
2022-09-15T20:51:39.165Z,15.50
2022-09-15T20:54:06.679Z,15.60
2022-09-15T20:56:35.573Z,15.50
2022-09-15T20:59:04.749Z,15.50
2022-09-15T21:01:37.534Z,15.40
2022-09-15T21:04:07.147Z,15.40
2022-09-15T21:06:34.725Z,15.40
2022-09-15T21:09:02.444Z,15.30
2022-09-15T21:11:30.525Z,15.30
2022-09-15T21:13:58.085Z,15.20
2022-09-15T21:16:28.672Z,15.20
2022-09-15T21:18:58.715Z,15.10
2022-09-15T21:21:28.353Z,15.00
2022-09-15T21:24:04.089Z,14.90
2022-09-15T21:26:59.945Z,14.90
2022-09-15T21:29:28.091Z,14.90
2022-09-15T21:31:56.366Z,14.90
2022-09-15T21:34:24.217Z,14.80
2022-09-15T21:36:53.569Z,14.70
2022-09-15T21:39:21.361Z,14.70
2022-09-15T21:41:48.477Z,14.70
2022-09-15T21:44:15.765Z,14.70
2022-09-15T21:46:44.981Z,14.60
2022-09-15T21:49:12.017Z,14.60
2022-09-15T21:51:39.722Z,14.60
2022-09-15T21:54:07.023Z,14.60
2022-09-15T21:56:34.097Z,14.50
2022-09-15T21:59:03.750Z,14.40
2022-09-15T22:01:32.730Z,14.30
2022-09-15T22:04:02.248Z,14.30
2022-09-15T22:06:32.567Z,14.30
2022-09-15T22:09:01.343Z,14.20
2022-09-15T22:11:28.777Z,14.10
2022-09-15T22:13:55.957Z,14.00
2022-09-15T22:16:24.779Z,14.00
2022-09-15T22:18:52.681Z,13.90
2022-09-15T22:21:25.392Z,13.90
2022-09-15T22:23:55.778Z,14.00
2022-09-15T22:26:28.653Z,14.00
2022-09-15T22:28:56.756Z,13.90
2022-09-15T22:31:24.973Z,13.90
2022-09-15T22:33:52.725Z,13.90
2022-09-15T22:36:26.574Z,13.80
2022-09-15T22:38:56.790Z,13.80
2022-09-15T22:41:25.926Z,13.80
2022-09-15T22:43:53.043Z,13.70
2022-09-15T22:46:21.104Z,13.70
2022-09-15T22:48:48.621Z,13.70
2022-09-15T22:51:16.363Z,13.70
2022-09-15T22:53:43.515Z,13.60
2022-09-15T22:56:14.059Z,13.60
2022-09-15T22:58:46.325Z,13.60
2022-09-15T23:01:19.913Z,13.60
2022-09-15T23:03:55.750Z,13.50
2022-09-15T23:06:24.300Z,13.50
2022-09-15T23:08:55.684Z,13.40
2022-09-15T23:11:23.162Z,13.40
2022-09-15T23:13:50.469Z,13.40
2022-09-15T23:16:17.534Z,13.40
2022-09-15T23:18:45.791Z,13.40
2022-09-15T23:21:13.489Z,13.30
2022-09-15T23:23:43.299Z,13.30
2022-09-15T23:26:11.870Z,13.30
2022-09-15T23:28:39.785Z,13.20
2022-09-15T23:31:07.625Z,13.30
2022-09-15T23:33:34.904Z,13.20
2022-09-15T23:36:03.608Z,13.20
2022-09-15T23:38:30.679Z,13.20
2022-09-15T23:40:58.243Z,13.10
2022-09-15T23:43:25.443Z,13.10
2022-09-15T23:45:53.507Z,13.10
2022-09-15T23:48:20.857Z,13.00
2022-09-15T23:50:48.298Z,13.10
2022-09-15T23:53:15.182Z,13.10
2022-09-15T23:55:42.156Z,13.00
2022-09-15T23:58:10.707Z,13.00
